createdAt,value
2022-08-02T00:00:01.533Z,101471.04
2022-08-02T00:01:24.515Z,101466.58
2022-08-02T00:02:27.466Z,101467.39
2022-08-02T00:03:30.803Z,101466.94
2022-08-02T00:04:33.844Z,101468.09
2022-08-02T00:05:37.399Z,101465.64
2022-08-02T00:06:40.290Z,101467.48
2022-08-02T00:07:43.214Z,101466.98
2022-08-02T00:08:46.063Z,101463.11
2022-08-02T00:09:49.022Z,101464.74
2022-08-02T00:10:51.861Z,101464.60
2022-08-02T00:11:54.710Z,101460.27
2022-08-02T00:12:57.636Z,101464.02
2022-08-02T00:14:00.470Z,101460.17
2022-08-02T00:15:04.119Z,101457.30
2022-08-02T00:16:06.929Z,101456.54
2022-08-02T00:17:09.799Z,101455.88
2022-08-02T00:18:12.609Z,101460.39
2022-08-02T00:19:15.471Z,101458.43
2022-08-02T00:20:18.690Z,101456.90
2022-08-02T00:21:21.592Z,101460.91
2022-08-02T00:22:24.483Z,101460.33
2022-08-02T00:23:27.372Z,101461.30
2022-08-02T00:24:30.905Z,101461.02
2022-08-02T00:25:34.117Z,101461.77
2022-08-02T00:26:36.991Z,101459.31
2022-08-02T00:27:39.780Z,101461.96
2022-08-02T00:28:42.783Z,101461.75
2022-08-02T00:29:52.583Z,101459.65
2022-08-02T00:30:57.817Z,101460.88
2022-08-02T00:32:00.685Z,101461.36
2022-08-02T00:33:05.198Z,101460.70
2022-08-02T00:34:28.467Z,101459.98
2022-08-02T00:35:33.071Z,101458.31
2022-08-02T00:36:35.913Z,101460.43
2022-08-02T00:37:39.594Z,101458.20
2022-08-02T00:38:42.391Z,101461.52
2022-08-02T00:39:46.037Z,101463.26
2022-08-02T00:40:49.414Z,101464.71
2022-08-02T00:41:53.264Z,101463.30
2022-08-02T00:43:09.676Z,101467.36
2022-08-02T00:44:12.764Z,101466.46
2022-08-02T00:45:15.719Z,101469.02
2022-08-02T00:46:19.417Z,101467.75
2022-08-02T00:47:22.292Z,101467.59
2022-08-02T00:48:25.090Z,101467.10
2022-08-02T00:49:28.151Z,101469.27
2022-08-02T00:50:31.718Z,101465.47
2022-08-02T00:51:34.712Z,101467.27
2022-08-02T00:52:37.646Z,101470.52
2022-08-02T00:53:40.966Z,101467.85
2022-08-02T00:54:43.788Z,101464.82
2022-08-02T00:55:46.707Z,101467.63
2022-08-02T00:56:51.173Z,101468.98
2022-08-02T00:57:54.296Z,101470.33
2022-08-02T00:58:57.218Z,101472.95
2022-08-02T00:59:59.976Z,101470.06
2022-08-02T01:01:03.641Z,101469.56
2022-08-02T01:02:06.554Z,101467.72
2022-08-02T01:03:09.485Z,101469.68
2022-08-02T01:04:13.129Z,101470.27
2022-08-02T01:05:16.261Z,101472.16
2022-08-02T01:06:19.106Z,101468.98
2022-08-02T01:07:21.856Z,101468.11
2022-08-02T01:08:29.389Z,101466.25
2022-08-02T01:09:34.550Z,101468.77
2022-08-02T01:10:37.485Z,101470.73
2022-08-02T01:11:40.294Z,101467.98
2022-08-02T01:12:43.191Z,101465.16
2022-08-02T01:13:46.625Z,101470.30
2022-08-02T01:14:53.600Z,101469.90
2022-08-02T01:16:00.673Z,101472.77
2022-08-02T01:17:08.666Z,101465.31
2022-08-02T01:18:24.670Z,101467.60
2022-08-02T01:19:46.168Z,101463.72
2022-08-02T01:21:07.393Z,101465.12
2022-08-02T01:22:20.165Z,101468.48
2022-08-02T01:23:32.066Z,101466.40
2022-08-02T01:24:49.364Z,101466.62
2022-08-02T01:26:01.348Z,101468.16
2022-08-02T01:27:06.930Z,101469.77
2022-08-02T01:28:27.848Z,101466.71
2022-08-02T01:29:34.542Z,101465.94
2022-08-02T01:32:14.854Z,101459.84
2022-08-02T01:33:19.655Z,101458.19
2022-08-02T01:34:29.655Z,101462.98
2022-08-02T01:35:50.533Z,101462.42
2022-08-02T01:36:57.225Z,101460.66
2022-08-02T01:38:14.551Z,101461.58
2022-08-02T01:39:26.830Z,101462.32
2022-08-02T01:40:37.614Z,101461.92
2022-08-02T01:41:41.438Z,101461.77
2022-08-02T01:42:47.180Z,101464.02
2022-08-02T01:43:52.509Z,101466.30
2022-08-02T01:44:57.006Z,101472.65
2022-08-02T01:46:00.714Z,101470.84
2022-08-02T01:47:05.768Z,101470.37
2022-08-02T01:48:09.929Z,101470.35
2022-08-02T01:49:20.377Z,101467.41
2022-08-02T01:50:26.145Z,101464.91
2022-08-02T01:51:47.787Z,101465.65
2022-08-02T01:52:54.535Z,101470.42
2022-08-02T01:53:57.392Z,101465.98
2022-08-02T01:55:19.021Z,101468.42
2022-08-02T01:56:22.290Z,101469.11
2022-08-02T01:57:26.379Z,101465.55
2022-08-02T01:58:35.058Z,101462.96
2022-08-02T01:59:38.370Z,101463.92
2022-08-02T02:00:41.801Z,101464.86
2022-08-02T02:01:46.123Z,101466.80
2022-08-02T02:02:49.711Z,101470.39
2022-08-02T02:03:52.765Z,101469.89
2022-08-02T02:04:58.041Z,101472.69
2022-08-02T02:06:02.454Z,101473.55
2022-08-02T02:07:06.210Z,101471.73
2022-08-02T02:08:09.628Z,101468.81
2022-08-02T02:09:14.506Z,101470.41
2022-08-02T02:10:19.302Z,101473.81
2022-08-02T02:12:14.110Z,101473.48
2022-08-02T02:12:47.854Z,101472.24
2022-08-02T02:13:50.823Z,101475.80
2022-08-02T02:14:54.760Z,101472.44
2022-08-02T02:15:58.682Z,101474.22
2022-08-02T02:17:03.382Z,101474.92
2022-08-02T02:18:12.547Z,101481.53
2022-08-02T02:19:21.310Z,101478.83
2022-08-02T02:20:25.689Z,101481.91
2022-08-02T02:21:29.055Z,101480.66
2022-08-02T02:22:34.329Z,101484.10
2022-08-02T02:23:37.975Z,101484.36
2022-08-02T02:24:40.889Z,101482.57
2022-08-02T02:25:46.815Z,101487.34
2022-08-02T02:26:52.297Z,101486.59
2022-08-02T02:28:00.786Z,101486.27
2022-08-02T02:29:05.210Z,101488.70
2022-08-02T02:30:08.437Z,101490.60
2022-08-02T02:31:14.100Z,101491.38
2022-08-02T02:32:18.040Z,101492.18
2022-08-02T02:33:26.292Z,101495.91
2022-08-02T02:34:37.852Z,101497.16
2022-08-02T02:35:42.227Z,101501.62
2022-08-02T02:36:49.630Z,101496.45
2022-08-02T02:37:53.060Z,101497.27
2022-08-02T02:38:57.452Z,101501.11
2022-08-02T02:40:01.163Z,101498.16
2022-08-02T02:41:06.852Z,101497.95
2022-08-02T02:42:13.615Z,101498.39
2022-08-02T02:43:17.530Z,101499.41
2022-08-02T02:44:21.442Z,101499.99
2022-08-02T02:45:25.151Z,101503.68
2022-08-02T02:46:30.017Z,101498.67
2022-08-02T02:47:40.702Z,101501.74
2022-08-02T02:48:44.941Z,101506.30
2022-08-02T02:49:49.150Z,101503.96
2022-08-02T02:50:52.788Z,101507.51
2022-08-02T02:51:56.006Z,101504.46
2022-08-02T02:52:59.382Z,101503.42
2022-08-02T02:54:33.587Z,101502.02
2022-08-02T02:55:25.712Z,101501.57
2022-08-02T02:56:28.695Z,101506.67
2022-08-02T02:57:31.704Z,101502.80
2022-08-02T02:58:34.764Z,101505.72
2022-08-02T02:59:43.049Z,101507.55
2022-08-02T03:01:11.749Z,101508.79
2022-08-02T03:02:15.167Z,101507.66
2022-08-02T03:03:19.595Z,101511.20
2022-08-02T03:04:24.961Z,101509.55
2022-08-02T03:05:27.845Z,101508.02
2022-08-02T03:06:31.095Z,101510.89
2022-08-02T03:07:34.614Z,101512.98
2022-08-02T03:08:37.509Z,101510.73
2022-08-02T03:09:40.420Z,101514.57
2022-08-02T03:10:44.478Z,101511.91
2022-08-02T03:11:47.763Z,101510.59
2022-08-02T03:12:50.994Z,101511.79
2022-08-02T03:13:53.871Z,101514.81
2022-08-02T03:14:58.565Z,101512.20
2022-08-02T03:16:01.859Z,101515.58
2022-08-02T03:17:04.776Z,101510.73
2022-08-02T03:18:10.501Z,101517.66
2022-08-02T03:19:13.408Z,101512.63
2022-08-02T03:20:17.571Z,101521.30
2022-08-02T03:21:20.576Z,101521.23
2022-08-02T03:22:23.442Z,101521.86
2022-08-02T03:23:26.370Z,101521.98
2022-08-02T03:24:29.212Z,101524.61
2022-08-02T03:25:32.080Z,101523.95
2022-08-02T03:26:35.433Z,101527.45
2022-08-02T03:27:38.723Z,101526.89
2022-08-02T03:28:41.837Z,101527.18
2022-08-02T03:29:44.662Z,101530.10
2022-08-02T03:30:47.541Z,101529.63
2022-08-02T03:31:50.843Z,101529.04
2022-08-02T03:32:53.817Z,101529.18
2022-08-02T03:33:58.389Z,101530.33
2022-08-02T03:35:01.676Z,101530.26
2022-08-02T03:36:10.544Z,101530.73
2022-08-02T03:37:13.977Z,101530.73
2022-08-02T03:38:18.801Z,101531.45
2022-08-02T03:39:22.507Z,101532.11
2022-08-02T03:40:25.761Z,101534.95
2022-08-02T03:41:29.699Z,101533.90
2022-08-02T03:42:32.663Z,101532.39
2022-08-02T03:43:36.814Z,101535.71
2022-08-02T03:44:40.078Z,101537.39
2022-08-02T03:45:44.198Z,101534.64
2022-08-02T03:46:51.931Z,101538.90
2022-08-02T03:47:58.791Z,101540.27
2022-08-02T03:49:02.599Z,101543.21
2022-08-02T03:50:06.927Z,101544.79
2022-08-02T03:51:10.901Z,101542.10
2022-08-02T03:52:14.669Z,101543.91
2022-08-02T03:53:20.127Z,101548.16
2022-08-02T03:54:23.625Z,101551.70
2022-08-02T03:55:39.298Z,101551.77
2022-08-02T03:56:42.210Z,101552.02
2022-08-02T03:57:45.372Z,101552.80
2022-08-02T03:58:49.439Z,101556.39
2022-08-02T03:59:52.646Z,101552.98
2022-08-02T04:00:56.675Z,101556.97
2022-08-02T04:01:59.570Z,101553.83
2022-08-02T04:03:07.006Z,101553.88
2022-08-02T04:04:13.905Z,101553.47
2022-08-02T04:05:17.349Z,101558.68
2022-08-02T04:06:20.322Z,101555.11
2022-08-02T04:08:35.208Z,101556.86
2022-08-02T04:08:53.262Z,101557.43
2022-08-02T04:09:56.109Z,101556.67
2022-08-02T04:11:17.335Z,101556.91
2022-08-02T04:12:20.415Z,101562.18
2022-08-02T04:13:31.263Z,101562.64
2022-08-02T04:14:36.605Z,101560.82
2022-08-02T04:15:40.241Z,101564.15
2022-08-02T04:16:43.060Z,101558.85
2022-08-02T04:17:48.770Z,101564.13
2022-08-02T04:18:54.084Z,101561.02
2022-08-02T04:20:00.974Z,101560.40
2022-08-02T04:21:04.942Z,101559.65
2022-08-02T04:22:11.948Z,101564.50
2022-08-02T04:23:16.701Z,101565.38
2022-08-02T04:24:24.521Z,101563.20
2022-08-02T04:25:35.502Z,101564.80
2022-08-02T04:26:44.739Z,101567.73
2022-08-02T04:28:17.732Z,101567.98
2022-08-02T04:29:17.092Z,101568.31
2022-08-02T04:30:20.485Z,101569.08
2022-08-02T04:31:23.361Z,101571.37
2022-08-02T04:32:27.284Z,101573.20
2022-08-02T04:33:31.170Z,101577.42
2022-08-02T04:34:34.518Z,101579.13
2022-08-02T04:35:37.480Z,101574.20
2022-08-02T04:36:40.553Z,101575.34
2022-08-02T04:38:09.449Z,101576.05
2022-08-02T04:39:07.249Z,101570.45
2022-08-02T04:40:10.931Z,101573.64
2022-08-02T04:41:13.828Z,101575.70
2022-08-02T04:42:23.945Z,101578.14
2022-08-02T04:43:26.858Z,101578.39
2022-08-02T04:44:29.749Z,101577.77
2022-08-02T04:45:32.782Z,101578.80
2022-08-02T04:46:36.196Z,101581.34
2022-08-02T04:48:02.531Z,101582.95
2022-08-02T04:49:02.403Z,101583.36
2022-08-02T04:50:08.300Z,101584.50
2022-08-02T04:51:11.456Z,101581.23
2022-08-02T04:52:14.706Z,101583.16
2022-08-02T04:53:17.733Z,101582.78
2022-08-02T04:54:20.727Z,101582.21
2022-08-02T04:55:28.385Z,101582.16
2022-08-02T04:56:31.397Z,101585.27
2022-08-02T04:57:53.276Z,101587.92
2022-08-02T04:58:56.443Z,101588.09
2022-08-02T04:59:59.306Z,101584.36
2022-08-02T05:01:02.394Z,101586.26
2022-08-02T05:02:05.494Z,101587.52
2022-08-02T05:03:08.394Z,101587.20
2022-08-02T05:04:11.340Z,101586.05
2022-08-02T05:05:14.410Z,101587.59
2022-08-02T05:06:19.880Z,101587.29
2022-08-02T05:07:23.033Z,101593.70
2022-08-02T05:08:25.868Z,101596.61
2022-08-02T05:09:28.772Z,101596.25
2022-08-02T05:10:31.663Z,101596.18
2022-08-02T05:11:36.783Z,101597.90
2022-08-02T05:12:41.568Z,101601.86
2022-08-02T05:13:57.561Z,101600.34
2022-08-02T05:15:00.900Z,101606.73
2022-08-02T05:16:04.664Z,101606.79
2022-08-02T05:17:07.645Z,101608.60
2022-08-02T05:18:10.692Z,101609.18
2022-08-02T05:19:14.450Z,101606.82
2022-08-02T05:20:17.912Z,101612.31
2022-08-02T05:21:21.071Z,101611.87
2022-08-02T05:22:24.120Z,101611.10
2022-08-02T05:23:29.071Z,101607.39
2022-08-02T05:24:31.979Z,101607.86
2022-08-02T05:25:34.874Z,101608.64
2022-08-02T05:26:37.827Z,101605.97
2022-08-02T05:27:40.840Z,101608.98
2022-08-02T05:28:43.858Z,101606.03
2022-08-02T05:29:51.191Z,101608.25
2022-08-02T05:30:56.550Z,101608.37
2022-08-02T05:31:59.408Z,101611.23
2022-08-02T05:33:02.623Z,101616.30
2022-08-02T05:34:08.670Z,101615.09
2022-08-02T05:35:17.699Z,101619.20
2022-08-02T05:36:21.613Z,101617.23
2022-08-02T05:37:24.709Z,101619.20
2022-08-02T05:38:31.226Z,101625.07
2022-08-02T05:39:34.877Z,101625.73
2022-08-02T05:40:46.673Z,101628.83
2022-08-02T05:41:57.985Z,101630.94
2022-08-02T05:43:00.896Z,101630.34
2022-08-02T05:44:04.412Z,101629.81
2022-08-02T05:45:07.525Z,101632.88
2022-08-02T05:46:10.450Z,101632.42
2022-08-02T05:47:13.302Z,101634.90
2022-08-02T05:48:16.198Z,101633.98
2022-08-02T05:49:19.304Z,101635.48
2022-08-02T05:50:24.312Z,101633.81
2022-08-02T05:51:43.005Z,101633.69
2022-08-02T05:52:48.603Z,101633.09
2022-08-02T05:53:59.228Z,101631.83
2022-08-02T05:55:06.419Z,101635.02
2022-08-02T05:56:24.501Z,101630.99
2022-08-02T05:57:46.140Z,101634.67
2022-08-02T05:59:09.902Z,101634.32
2022-08-02T06:00:14.074Z,101629.91
2022-08-02T06:01:24.088Z,101629.95
2022-08-02T06:02:30.874Z,101625.70
2022-08-02T06:03:44.417Z,101627.92
2022-08-02T06:04:56.822Z,101628.16
2022-08-02T06:06:00.681Z,101627.60
2022-08-02T06:07:06.589Z,101630.89
2022-08-02T06:08:10.305Z,101631.30
2022-08-02T06:09:23.243Z,101631.05
2022-08-02T06:10:30.413Z,101639.26
2022-08-02T06:11:35.724Z,101641.61
2022-08-02T06:12:47.196Z,101642.10
2022-08-02T06:13:51.674Z,101642.97
2022-08-02T06:14:54.938Z,101640.73
2022-08-02T06:15:59.542Z,101646.77
2022-08-02T06:17:05.763Z,101646.98
2022-08-02T06:18:08.979Z,101644.49
2022-08-02T06:19:12.265Z,101645.59
2022-08-02T06:20:15.610Z,101641.80
2022-08-02T06:22:35.297Z,101648.52
2022-08-02T06:22:45.441Z,101648.08
2022-08-02T06:23:59.226Z,101648.19
2022-08-02T06:25:02.718Z,101648.35
2022-08-02T06:26:06.804Z,101647.52
2022-08-02T06:27:10.043Z,101650.20
2022-08-02T06:28:13.933Z,101647.02
2022-08-02T06:29:17.288Z,101645.77
2022-08-02T06:30:20.216Z,101650.19
2022-08-02T06:31:23.198Z,101649.59
2022-08-02T06:32:26.915Z,101645.89
2022-08-02T06:33:29.733Z,101650.80
2022-08-02T06:34:36.337Z,101648.08
2022-08-02T06:35:54.066Z,101649.79
2022-08-02T06:37:05.839Z,101648.04
2022-08-02T06:38:10.324Z,101651.70
2022-08-02T06:39:16.478Z,101650.40
2022-08-02T06:40:22.316Z,101650.80
2022-08-02T06:41:26.356Z,101652.94
2022-08-02T06:42:44.336Z,101653.69
2022-08-02T06:43:53.560Z,101653.63
2022-08-02T06:44:58.138Z,101652.20
2022-08-02T06:46:34.490Z,101654.73
2022-08-02T06:47:24.823Z,101655.50
2022-08-02T06:48:27.701Z,101659.11
2022-08-02T06:49:52.130Z,101660.80
2022-08-02T06:50:53.514Z,101662.17
2022-08-02T06:51:56.627Z,101659.77
2022-08-02T06:53:00.525Z,101658.74
2022-08-02T06:54:03.508Z,101658.45
2022-08-02T06:55:07.411Z,101659.85
2022-08-02T06:56:10.711Z,101660.26
2022-08-02T06:57:15.505Z,101658.08
2022-08-02T06:58:18.386Z,101656.05
2022-08-02T06:59:21.262Z,101657.98
2022-08-02T07:00:24.274Z,101660.30
2022-08-02T07:01:27.329Z,101659.20
2022-08-02T07:02:41.879Z,101662.88
2022-08-02T07:03:44.760Z,101662.61
2022-08-02T07:04:47.748Z,101662.20
2022-08-02T07:05:50.569Z,101663.83
2022-08-02T07:06:53.922Z,101666.78
2022-08-02T07:07:57.093Z,101665.27
2022-08-02T07:09:20.160Z,101669.30
2022-08-02T07:10:24.337Z,101669.63
2022-08-02T07:11:27.170Z,101669.78
2022-08-02T07:12:31.129Z,101671.90
2022-08-02T07:13:39.295Z,101675.27
2022-08-02T07:14:42.645Z,101679.35
2022-08-02T07:15:49.160Z,101678.49
2022-08-02T07:16:53.550Z,101681.90
2022-08-02T07:17:59.139Z,101681.11
2022-08-02T07:19:03.387Z,101683.85
2022-08-02T07:20:06.652Z,101683.00
2022-08-02T07:21:09.625Z,101680.42
2022-08-02T07:22:13.249Z,101685.67
2022-08-02T07:23:18.034Z,101687.75
2022-08-02T07:24:21.092Z,101684.98
2022-08-02T07:25:24.030Z,101690.98
2022-08-02T07:26:26.655Z,101688.11
2022-08-02T07:27:30.126Z,101689.41
2022-08-02T07:28:33.202Z,101691.02
2022-08-02T07:29:45.187Z,101689.37
2022-08-02T07:30:49.834Z,101688.77
2022-08-02T07:31:52.814Z,101690.36
2022-08-02T07:32:55.666Z,101688.13
2022-08-02T07:33:58.473Z,101690.70
2022-08-02T07:35:06.449Z,101694.77
2022-08-02T07:36:17.055Z,101693.42
2022-08-02T07:37:53.239Z,101699.05
2022-08-02T07:38:49.958Z,101692.71
2022-08-02T07:39:52.827Z,101692.27
2022-08-02T07:40:56.355Z,101697.67
2022-08-02T07:41:59.475Z,101694.73
2022-08-02T07:43:04.114Z,101692.50
2022-08-02T07:44:13.038Z,101694.69
2022-08-02T07:45:16.150Z,101698.55
2022-08-02T07:46:19.148Z,101696.70
2022-08-02T07:47:22.023Z,101700.20
2022-08-02T07:48:24.925Z,101699.10
2022-08-02T07:49:28.145Z,101698.73
2022-08-02T07:50:31.086Z,101699.15
2022-08-02T07:51:36.643Z,101703.73
2022-08-02T07:52:40.525Z,101703.68
2022-08-02T07:53:50.648Z,101705.37
2022-08-02T07:54:54.918Z,101707.33
2022-08-02T07:55:57.809Z,101711.20
2022-08-02T07:57:01.199Z,101711.42
2022-08-02T07:58:04.918Z,101705.41
2022-08-02T07:59:07.824Z,101703.33
2022-08-02T08:00:11.047Z,101702.23
2022-08-02T08:01:18.137Z,101700.55
2022-08-02T08:02:21.536Z,101697.63
2022-08-02T08:03:24.207Z,101697.19
2022-08-02T08:04:27.032Z,101694.33
2022-08-02T08:05:29.661Z,101690.19
2022-08-02T08:06:32.451Z,101692.06
2022-08-02T08:07:35.436Z,101691.90
2022-08-02T08:08:38.611Z,101690.54
2022-08-02T08:09:45.244Z,101691.46
2022-08-02T08:10:48.224Z,101689.94
2022-08-02T08:11:51.266Z,101688.98
2022-08-02T08:12:55.287Z,101695.42
2022-08-02T08:13:58.168Z,101696.73
2022-08-02T08:15:01.022Z,101696.11
2022-08-02T08:16:04.209Z,101694.75
2022-08-02T08:17:07.437Z,101696.61
2022-08-02T08:18:10.543Z,101696.79
2022-08-02T08:19:15.312Z,101697.83
2022-08-02T08:20:18.686Z,101700.39
2022-08-02T08:21:21.737Z,101697.48
2022-08-02T08:22:24.703Z,101698.20
2022-08-02T08:23:27.782Z,101698.69
2022-08-02T08:24:30.834Z,101703.17
2022-08-02T08:25:39.858Z,101703.50
2022-08-02T08:26:44.529Z,101704.48
2022-08-02T08:27:48.302Z,101708.09
2022-08-02T08:28:51.361Z,101709.85
2022-08-02T08:29:54.291Z,101710.63
2022-08-02T08:30:57.454Z,101709.86
2022-08-02T08:32:00.313Z,101709.58
2022-08-02T08:33:04.467Z,101710.95
2022-08-02T08:34:07.462Z,101709.42
2022-08-02T08:35:10.467Z,101711.83
2022-08-02T08:36:13.522Z,101710.61
2022-08-02T08:37:17.683Z,101713.13
2022-08-02T08:38:21.526Z,101708.91
2022-08-02T08:39:25.982Z,101713.11
2022-08-02T08:40:29.112Z,101709.52
2022-08-02T08:41:32.168Z,101709.71
2022-08-02T08:42:37.810Z,101710.54
2022-08-02T08:43:41.427Z,101709.99
2022-08-02T08:44:45.178Z,101711.96
2022-08-02T08:45:56.183Z,101712.84
2022-08-02T08:47:00.953Z,101716.61
2022-08-02T08:48:10.387Z,101718.91
2022-08-02T08:49:19.650Z,101715.48
2022-08-02T08:50:25.590Z,101710.55
2022-08-02T08:51:37.346Z,101710.66
2022-08-02T08:52:42.425Z,101709.06
2022-08-02T08:53:47.496Z,101708.75
2022-08-02T08:54:50.696Z,101711.85
2022-08-02T08:55:56.464Z,101709.39
2022-08-02T08:56:59.884Z,101711.90
2022-08-02T08:58:03.311Z,101709.81
2022-08-02T08:59:06.770Z,101711.51
2022-08-02T09:00:11.229Z,101709.71
2022-08-02T09:01:15.419Z,101710.09
2022-08-02T09:02:21.389Z,101712.66
2022-08-02T09:03:26.587Z,101709.77
2022-08-02T09:04:36.808Z,101711.11
2022-08-02T09:05:40.645Z,101707.16
2022-08-02T09:06:43.724Z,101708.41
2022-08-02T09:07:50.318Z,101706.04
2022-08-02T09:08:53.239Z,101707.02
2022-08-02T09:09:56.095Z,101711.15
2022-08-02T09:10:59.525Z,101705.91
2022-08-02T09:12:15.708Z,101705.73
2022-08-02T09:13:37.983Z,101711.00
2022-08-02T09:14:49.930Z,101703.02
2022-08-02T09:16:11.372Z,101706.73
2022-08-02T09:17:16.430Z,101706.58
2022-08-02T09:18:19.296Z,101710.13
2022-08-02T09:19:26.537Z,101709.52
2022-08-02T09:20:30.865Z,101710.39
2022-08-02T09:21:35.044Z,101708.40
2022-08-02T09:22:38.467Z,101717.65
2022-08-02T09:23:45.409Z,101715.87
2022-08-02T09:24:49.227Z,101718.28
2022-08-02T09:26:00.324Z,101719.05
2022-08-02T09:27:10.609Z,101720.52
2022-08-02T09:28:15.041Z,101723.16
2022-08-02T09:29:22.580Z,101724.17
2022-08-02T09:30:28.376Z,101721.84
2022-08-02T09:31:34.130Z,101720.80
2022-08-02T09:32:48.140Z,101721.70
2022-08-02T09:33:55.389Z,101722.80
2022-08-02T09:34:58.466Z,101718.98
2022-08-02T09:36:06.102Z,101719.38
2022-08-02T09:37:23.588Z,101718.17
2022-08-02T09:38:26.977Z,101716.31
2022-08-02T09:39:47.470Z,101714.27
2022-08-02T09:40:51.190Z,101715.18
2022-08-02T09:42:08.344Z,101717.54
2022-08-02T09:43:11.438Z,101716.17
2022-08-02T09:44:16.249Z,101719.54
2022-08-02T09:45:19.902Z,101722.45
2022-08-02T09:46:24.681Z,101722.29
2022-08-02T09:47:28.338Z,101717.42
2022-08-02T09:48:34.047Z,101717.55
2022-08-02T09:49:45.610Z,101719.79
2022-08-02T09:50:56.430Z,101720.74
2022-08-02T09:52:01.675Z,101720.85
2022-08-02T09:53:04.810Z,101719.44
2022-08-02T09:54:09.731Z,101719.43
2022-08-02T09:55:13.076Z,101716.81
2022-08-02T09:56:35.185Z,101712.36
2022-08-02T09:57:38.970Z,101709.14
2022-08-02T09:58:44.896Z,101706.07
2022-08-02T09:59:55.571Z,101712.02
2022-08-02T10:00:59.239Z,101708.70
2022-08-02T10:02:17.524Z,101709.94
2022-08-02T10:03:23.073Z,101710.61
2022-08-02T10:04:34.286Z,101712.36
2022-08-02T10:06:02.345Z,101708.98
2022-08-02T10:07:06.668Z,101709.04
2022-08-02T10:08:09.829Z,101704.73
2022-08-02T10:09:15.791Z,101700.91
2022-08-02T10:10:18.973Z,101695.55
2022-08-02T10:11:22.760Z,101701.36
2022-08-02T10:12:26.717Z,101696.46
2022-08-02T10:13:30.832Z,101697.62
2022-08-02T10:14:34.773Z,101694.08
2022-08-02T10:15:38.584Z,101700.18
2022-08-02T10:16:54.772Z,101695.68
2022-08-02T10:17:58.088Z,101692.70
2022-08-02T10:19:04.384Z,101695.52
2022-08-02T10:20:07.508Z,101700.51
2022-08-02T10:21:12.648Z,101701.08
2022-08-02T10:22:17.685Z,101699.48
2022-08-02T10:23:25.928Z,101702.66
2022-08-02T10:24:30.623Z,101698.90
2022-08-02T10:25:36.495Z,101698.86
2022-08-02T10:26:40.883Z,101694.85
2022-08-02T10:28:04.362Z,101701.93
2022-08-02T10:29:09.624Z,101700.52
2022-08-02T10:30:12.700Z,101694.98
2022-08-02T10:31:19.160Z,101694.38
2022-08-02T10:32:26.762Z,101694.34
2022-08-02T10:33:30.316Z,101693.48
2022-08-02T10:34:38.185Z,101690.22
2022-08-02T10:35:41.685Z,101687.09
2022-08-02T10:36:45.542Z,101689.18
2022-08-02T10:37:51.012Z,101691.27
2022-08-02T10:38:55.631Z,101689.04
2022-08-02T10:39:59.271Z,101695.54
2022-08-02T10:41:02.187Z,101697.84
2022-08-02T10:42:05.258Z,101693.76
2022-08-02T10:43:08.146Z,101694.98
2022-08-02T10:44:30.675Z,101693.04
2022-08-02T10:45:34.832Z,101692.22
2022-08-02T10:46:37.840Z,101695.39
2022-08-02T10:47:56.288Z,101695.73
2022-08-02T10:49:29.691Z,101696.77
2022-08-02T10:50:46.658Z,101697.98
2022-08-02T10:51:55.169Z,101700.75
2022-08-02T10:53:16.562Z,101699.31
2022-08-02T10:54:20.896Z,101700.02
2022-08-02T10:55:24.561Z,101704.55
2022-08-02T10:56:45.970Z,101701.59
2022-08-02T10:58:08.902Z,101701.73
2022-08-02T10:59:28.479Z,101700.77
2022-08-02T11:00:31.421Z,101699.20
2022-08-02T11:01:43.574Z,101703.56
2022-08-02T11:02:47.268Z,101699.50
2022-08-02T11:04:00.146Z,101699.89
2022-08-02T11:05:05.441Z,101698.63
2022-08-02T11:06:25.250Z,101699.05
2022-08-02T11:07:33.101Z,101696.98
2022-08-02T11:08:36.417Z,101694.58
2022-08-02T11:09:39.791Z,101691.98
2022-08-02T11:10:42.695Z,101695.79
2022-08-02T11:12:04.449Z,101694.20
2022-08-02T11:13:08.995Z,101697.84
2022-08-02T11:14:14.230Z,101697.83
2022-08-02T11:15:18.706Z,101705.73
2022-08-02T11:16:21.536Z,101706.75
2022-08-02T11:17:25.203Z,101709.42
2022-08-02T11:18:54.242Z,101711.22
2022-08-02T11:20:12.769Z,101712.86
2022-08-02T11:21:28.006Z,101711.40
2022-08-02T11:22:31.096Z,101713.21
2022-08-02T11:23:44.923Z,101712.95
2022-08-02T11:24:48.990Z,101710.20
2022-08-02T11:26:03.592Z,101713.98
2022-08-02T11:27:18.592Z,101714.94
2022-08-02T11:28:25.972Z,101712.78
2022-08-02T11:29:58.313Z,101713.92
2022-08-02T11:31:02.684Z,101710.98
2022-08-02T11:32:15.136Z,101712.85
2022-08-02T11:33:18.525Z,101708.08
2022-08-02T11:34:37.218Z,101707.92
2022-08-02T11:35:41.480Z,101707.82
2022-08-02T11:36:45.455Z,101706.74
2022-08-02T11:37:48.697Z,101707.93
2022-08-02T11:39:09.005Z,101705.55
2022-08-02T11:40:19.677Z,101704.48
2022-08-02T11:41:46.080Z,101708.46
2022-08-02T11:42:47.299Z,101707.55
2022-08-02T11:43:56.611Z,101705.41
2022-08-02T11:45:00.016Z,101704.02
2022-08-02T11:46:03.960Z,101704.00
2022-08-02T11:47:09.795Z,101709.30
2022-08-02T11:48:12.832Z,101707.98
2022-08-02T11:49:19.556Z,101715.73
2022-08-02T11:50:30.449Z,101709.78
2022-08-02T11:51:33.556Z,101712.89
2022-08-02T11:52:37.694Z,101717.26
2022-08-02T11:53:43.854Z,101718.45
2022-08-02T11:54:49.167Z,101713.20
2022-08-02T11:55:56.875Z,101722.52
2022-08-02T11:57:16.875Z,101727.47
2022-08-02T11:58:22.033Z,101725.80
2022-08-02T11:59:24.960Z,101727.34
2022-08-02T12:00:30.737Z,101727.13
2022-08-02T12:01:44.791Z,101729.42
2022-08-02T12:02:49.338Z,101730.01
2022-08-02T12:03:52.481Z,101733.14
2022-08-02T12:04:58.359Z,101733.05
2022-08-02T12:06:06.338Z,101739.55
2022-08-02T12:07:10.378Z,101732.73
2022-08-02T12:08:13.608Z,101733.59
2022-08-02T12:09:18.238Z,101732.31
2022-08-02T12:10:23.794Z,101735.46
2022-08-02T12:11:26.695Z,101738.45
2022-08-02T12:12:49.465Z,101744.17
2022-08-02T12:13:56.861Z,101746.30
2022-08-02T12:15:00.393Z,101747.23
2022-08-02T12:16:29.794Z,101741.33
2022-08-02T12:17:51.046Z,101743.91
2022-08-02T12:19:12.867Z,101743.34
2022-08-02T12:20:17.425Z,101744.09
2022-08-02T12:21:22.106Z,101741.64
2022-08-02T12:22:27.403Z,101736.48
2022-08-02T12:23:32.091Z,101733.39
2022-08-02T12:24:35.232Z,101733.13
2022-08-02T12:25:38.168Z,101731.59
2022-08-02T12:26:44.883Z,101736.75
2022-08-02T12:27:48.027Z,101741.66
2022-08-02T12:29:01.505Z,101738.98
2022-08-02T12:30:09.488Z,101741.81
2022-08-02T12:31:15.561Z,101744.48
2022-08-02T12:32:23.712Z,101743.05
2022-08-02T12:33:28.426Z,101744.24
2022-08-02T12:34:32.577Z,101747.90
2022-08-02T12:35:36.044Z,101744.23
2022-08-02T12:36:40.035Z,101750.55
2022-08-02T12:37:45.790Z,101752.59
2022-08-02T12:38:58.546Z,101758.64